Time;durP1;ratioP1;P1;durP2;ratioP2;P2;SDS_P1;SDS_P2;PMS_P1;PMS_P2;Temp;Humidity;BMP_temperature;BMP_pressure;BME280_temperature;BME280_humidity;BME280_pressure;Samples;Min_cycle;Max_cycle;Signal;HPM_P1;HPM_P2
2021/08/25 00:01:07;;;;;;;11.88;10.20;;;13.00;93.00;;;;;;5052116;28;20111;-69
2021/08/25 00:03:33;;;;;;;12.98;10.85;;;13.00;93.00;;;;;;5045473;28;20033;-69
2021/08/25 00:05:58;;;;;;;15.18;10.55;;;13.00;93.10;;;;;;5050857;28;20036;-69
2021/08/25 00:08:24;;;;;;;11.68;9.93;;;13.00;93.10;;;;;;5050151;28;20032;-69
2021/08/25 00:10:50;;;;;;;12.55;10.13;;;12.90;93.30;;;;;;5060162;28;20100;-70
2021/08/25 00:13:15;;;;;;;13.45;10.82;;;12.90;93.10;;;;;;5051013;28;20434;-71
2021/08/25 00:15:42;;;;;;;13.07;10.40;;;12.90;93.10;;;;;;5049995;28;20052;-71
2021/08/25 00:18:09;;;;;;;13.73;10.57;;;12.90;93.10;;;;;;5048272;28;20033;-69
2021/08/25 00:20:35;;;;;;;13.63;10.70;;;12.90;93.20;;;;;;5051240;28;20100;-69
2021/08/25 00:23:01;;;;;;;12.48;10.65;;;12.90;93.20;;;;;;5051600;28;20061;-72
2021/08/25 00:25:27;;;;;;;13.57;10.75;;;12.80;93.20;;;;;;5050013;28;20057;-69
2021/08/25 00:27:53;;;;;;;13.77;10.55;;;12.80;93.20;;;;;;5048601;28;20029;-69
2021/08/25 00:30:19;;;;;;;12.93;10.45;;;12.80;93.30;;;;;;5048222;28;20087;-69
2021/08/25 00:32:45;;;;;;;13.10;10.63;;;12.80;93.30;;;;;;5039875;28;20449;-69
2021/08/25 00:35:11;;;;;;;13.07;10.50;;;12.70;93.30;;;;;;5043977;28;20029;-69
2021/08/25 00:37:37;;;;;;;12.23;10.05;;;12.80;93.30;;;;;;5048993;28;20036;-69
2021/08/25 00:40:04;;;;;;;15.70;10.30;;;12.70;93.30;;;;;;5049736;28;20143;-70
2021/08/25 00:42:29;;;;;;;13.15;10.80;;;12.70;93.40;;;;;;5051035;28;20040;-69
2021/08/25 00:44:55;;;;;;;13.23;10.82;;;12.70;93.40;;;;;;5028900;28;20021;-69
2021/08/25 00:47:21;;;;;;;14.50;10.63;;;12.70;93.40;;;;;;5049045;28;20052;-69
2021/08/25 00:49:46;;;;;;;12.35;10.45;;;12.70;93.40;;;;;;5049044;28;20040;-70
2021/08/25 00:52:13;;;;;;;12.38;9.82;;;12.70;93.50;;;;;;5050196;28;20430;-70
2021/08/25 00:54:39;;;;;;;13.60;10.63;;;12.70;93.50;;;;;;5049191;28;20040;-71
2021/08/25 00:57:04;;;;;;;12.95;9.88;;;12.60;93.50;;;;;;5032207;28;20028;-70
2021/08/25 00:59:32;;;;;;;11.68;9.75;;;12.70;93.50;;;;;;5048912;28;20083;-72
2021/08/25 01:02:02;;;;;;;12.93;10.55;;;12.70;93.50;;;;;;5032455;28;20025;-69
2021/08/25 01:04:40;;;;;;;11.35;9.70;;;12.70;93.50;;;;;;5020978;28;20025;-72
2021/08/25 01:07:08;;;;;;;15.75;11.00;;;12.60;93.50;;;;;;5049218;28;20048;-69
2021/08/25 01:09:37;;;;;;;13.73;10.48;;;12.60;93.50;;;;;;5048922;28;20052;-69
2021/08/25 01:12:03;;;;;;;14.13;11.05;;;12.60;93.50;;;;;;5058360;28;20024;-70
2021/08/25 01:14:29;;;;;;;12.90;10.15;;;12.60;93.50;;;;;;5050722;28;20028;-71
2021/08/25 01:16:56;;;;;;;12.93;10.45;;;12.50;93.50;;;;;;5048176;28;20063;-69
2021/08/25 01:19:23;;;;;;;15.95;11.48;;;12.50;93.50;;;;;;5035958;28;20477;-71
2021/08/25 01:21:49;;;;;;;16.75;11.10;;;12.50;93.50;;;;;;5049585;28;20021;-70
2021/08/25 01:24:18;;;;;;;14.90;11.25;;;12.40;93.50;;;;;;5050103;28;20095;-70
2021/08/25 01:26:47;;;;;;;12.52;10.60;;;12.40;93.60;;;;;;5047509;28;20028;-69
2021/08/25 01:29:23;;;;;;;13.82;11.20;;;12.40;93.60;;;;;;5049266;28;20083;-69
2021/08/25 01:31:50;;;;;;;14.05;10.90;;;12.40;93.70;;;;;;5048404;28;20442;-69
2021/08/25 01:34:15;;;;;;;12.63;10.00;;;12.40;93.70;;;;;;5045570;28;20051;-69
2021/08/25 01:36:41;;;;;;;15.68;11.70;;;12.30;93.60;;;;;;5041961;28;20453;-72
2021/08/25 01:39:07;;;;;;;14.40;11.30;;;12.30;93.60;;;;;;5049427;28;20055;-69
2021/08/25 01:41:32;;;;;;;16.10;12.13;;;12.30;93.60;;;;;;5049971;28;20021;-69
2021/08/25 01:44:00;;;;;;;14.93;11.32;;;12.20;93.60;;;;;;5048295;28;20096;-69
2021/08/25 01:46:35;;;;;;;14.68;11.57;;;12.20;93.70;;;;;;5046440;28;20052;-69
2021/08/25 01:49:05;;;;;;;15.05;11.20;;;12.20;93.70;;;;;;5045458;28;20420;-69
2021/08/25 01:51:31;;;;;;;16.02;10.93;;;12.20;93.70;;;;;;5049683;28;20021;-69
2021/08/25 01:53:57;;;;;;;14.60;10.88;;;12.20;93.80;;;;;;5048097;28;20508;-69
2021/08/25 01:56:24;;;;;;;14.45;11.35;;;12.10;94.00;;;;;;5048279;28;20523;-69
2021/08/25 01:58:49;;;;;;;15.43;11.27;;;12.10;93.80;;;;;;5049767;28;20028;-69
2021/08/25 02:01:15;;;;;;;15.68;11.30;;;12.10;93.90;;;;;;5045961;28;20389;-69
2021/08/25 02:03:41;;;;;;;16.00;11.10;;;12.10;93.90;;;;;;5049868;28;20057;-69
2021/08/25 02:06:06;;;;;;;15.25;11.23;;;12.10;93.90;;;;;;5047837;28;20108;-70
2021/08/25 02:08:32;;;;;;;16.25;11.75;;;12.10;93.90;;;;;;5047801;28;20551;-71
2021/08/25 02:10:59;;;;;;;16.10;11.63;;;12.10;94.00;;;;;;5041742;28;20053;-68
2021/08/25 02:13:25;;;;;;;13.98;10.90;;;12.10;94.00;;;;;;5030475;28;20061;-70
2021/08/25 02:15:51;;;;;;;13.98;11.13;;;12.20;94.00;;;;;;5037764;28;20112;-70
2021/08/25 02:18:17;;;;;;;15.95;11.60;;;12.10;94.00;;;;;;5049279;28;20105;-69
2021/08/25 02:20:43;;;;;;;15.57;11.65;;;12.20;94.00;;;;;;5049847;28;20033;-70
2021/08/25 02:23:09;;;;;;;16.58;11.23;;;12.10;94.00;;;;;;5049807;28;20067;-69
2021/08/25 02:25:35;;;;;;;14.07;10.70;;;12.10;94.00;;;;;;5023887;28;20365;-70
2021/08/25 02:28:00;;;;;;;15.27;11.13;;;12.10;94.00;;;;;;5045149;28;20036;-70
2021/08/25 02:30:26;;;;;;;15.85;10.68;;;12.10;94.10;;;;;;5049071;28;20049;-69
2021/08/25 02:32:52;;;;;;;14.57;11.00;;;12.10;94.10;;;;;;5049185;28;20053;-72
2021/08/25 02:35:17;;;;;;;13.93;10.60;;;12.00;94.10;;;;;;5029678;28;20057;-69
2021/08/25 02:37:43;;;;;;;14.73;11.55;;;12.00;94.10;;;;;;5047751;28;20052;-70
2021/08/25 02:40:10;;;;;;;14.10;11.35;;;12.00;94.10;;;;;;5052300;28;20025;-69
2021/08/25 02:42:36;;;;;;;14.43;11.10;;;12.00;94.10;;;;;;5048354;28;20026;-69
2021/08/25 02:45:04;;;;;;;14.95;11.02;;;12.00;94.10;;;;;;5050436;28;20104;-69
2021/08/25 02:47:29;;;;;;;14.95;11.20;;;12.00;94.10;;;;;;5046993;28;20040;-71
2021/08/25 02:49:55;;;;;;;16.90;11.88;;;11.90;94.10;;;;;;5048069;28;20037;-69
2021/08/25 02:52:20;;;;;;;15.63;11.82;;;11.90;94.10;;;;;;5046414;28;20043;-69
2021/08/25 02:54:46;;;;;;;15.23;11.70;;;11.80;94.10;;;;;;5052743;28;20037;-70
2021/08/25 02:57:11;;;;;;;16.70;12.05;;;11.80;94.10;;;;;;5048056;28;20025;-72
2021/08/25 02:59:37;;;;;;;16.95;11.75;;;11.80;94.10;;;;;;5048732;28;20040;-70
2021/08/25 03:02:02;;;;;;;16.30;12.07;;;11.80;94.10;;;;;;5049532;28;20032;-69
2021/08/25 03:04:28;;;;;;;15.15;11.48;;;11.80;94.20;;;;;;5052622;28;20025;-69
2021/08/25 03:06:53;;;;;;;19.15;12.20;;;11.70;94.20;;;;;;5052687;28;20032;-72
2021/08/25 03:09:19;;;;;;;16.30;12.25;;;11.70;94.20;;;;;;5051965;28;20033;-69
2021/08/25 03:11:45;;;;;;;17.20;12.30;;;11.80;94.20;;;;;;5052904;28;20043;-69
2021/08/25 03:14:10;;;;;;;16.73;12.27;;;11.70;94.20;;;;;;5052168;28;20104;-69
2021/08/25 03:16:36;;;;;;;16.10;12.43;;;11.70;94.20;;;;;;5051960;28;20032;-71
2021/08/25 03:19:01;;;;;;;19.33;12.45;;;11.70;94.20;;;;;;5049534;28;20028;-69
2021/08/25 03:21:27;;;;;;;16.60;12.23;;;11.70;94.20;;;;;;5052351;28;20394;-69
2021/08/25 03:23:52;;;;;;;18.13;12.90;;;11.60;94.30;;;;;;5042753;28;20079;-69
2021/08/25 03:26:18;;;;;;;19.80;12.98;;;11.60;94.30;;;;;;5044034;28;20374;-71
2021/08/25 03:28:44;;;;;;;17.23;12.63;;;11.60;94.30;;;;;;5048722;28;20033;-69
2021/08/25 03:31:10;;;;;;;17.08;12.32;;;11.60;94.30;;;;;;5049020;28;20116;-69
2021/08/25 03:33:35;;;;;;;17.42;12.63;;;11.60;94.40;;;;;;5050339;28;20039;-70
2021/08/25 03:36:01;;;;;;;17.75;12.75;;;11.60;94.40;;;;;;5032590;28;20029;-69
2021/08/25 03:38:26;;;;;;;17.35;13.05;;;11.60;94.40;;;;;;5045956;28;20029;-70
2021/08/25 03:40:52;;;;;;;16.35;12.52;;;11.60;94.40;;;;;;5051433;28;20033;-69
2021/08/25 03:43:18;;;;;;;16.70;12.57;;;11.60;94.40;;;;;;5051270;28;20040;-69
2021/08/25 03:45:43;;;;;;;18.83;13.18;;;11.60;94.40;;;;;;5049798;28;20074;-69
2021/08/25 03:50:37;;;;;;;17.25;13.13;;;11.50;94.40;;;;;;5066815;28;20467;-66
2021/08/25 03:53:02;;;;;;;18.75;12.98;;;11.50;94.40;;;;;;5071241;28;20028;-69
2021/08/25 03:55:28;;;;;;;15.90;12.45;;;11.50;94.70;;;;;;5070751;28;20028;-69
2021/08/25 03:57:53;;;;;;;18.83;13.27;;;11.50;94.50;;;;;;5071711;28;20165;-69
2021/08/25 04:00:19;;;;;;;18.65;13.50;;;11.40;94.50;;;;;;5071273;28;20480;-67
2021/08/25 04:02:44;;;;;;;18.85;13.65;;;11.50;94.60;;;;;;5070775;28;20024;-70
2021/08/25 04:05:10;;;;;;;18.30;13.63;;;11.50;94.60;;;;;;5069502;28;20448;-70
2021/08/25 04:07:36;;;;;;;21.92;13.90;;;11.40;94.60;;;;;;5069986;28;20498;-69
2021/08/25 04:10:01;;;;;;;17.55;12.82;;;11.50;94.60;;;;;;5070812;28;20032;-67
2021/08/25 04:12:27;;;;;;;18.23;13.20;;;11.50;94.60;;;;;;5068088;28;20024;-71
2021/08/25 04:14:52;;;;;;;18.33;13.30;;;11.50;94.70;;;;;;5059372;28;20035;-70
2021/08/25 04:17:18;;;;;;;19.63;13.93;;;11.50;94.70;;;;;;5070051;28;20035;-69
2021/08/25 04:19:43;;;;;;;19.52;13.95;;;11.50;94.70;;;;;;5068984;28;20482;-67
2021/08/25 04:22:09;;;;;;;19.00;13.48;;;11.50;94.70;;;;;;5069253;28;20028;-70
2021/08/25 04:24:36;;;;;;;19.10;13.85;;;11.50;94.60;;;;;;5069379;28;20020;-67
2021/08/25 04:27:02;;;;;;;18.02;13.43;;;11.50;94.70;;;;;;5070061;28;20052;-70
2021/08/25 04:29:28;;;;;;;24.55;14.43;;;11.40;94.60;;;;;;5069133;28;20408;-67
2021/08/25 04:31:53;;;;;;;20.23;13.40;;;11.40;94.70;;;;;;5069028;28;20024;-69
2021/08/25 04:34:19;;;;;;;19.25;13.90;;;11.40;94.70;;;;;;5070642;28;20439;-70
2021/08/25 04:36:44;;;;;;;23.80;14.00;;;11.40;94.70;;;;;;5052097;28;20072;-69
2021/08/25 04:39:10;;;;;;;18.23;13.30;;;11.40;94.80;;;;;;5050974;28;20025;-68
2021/08/25 04:41:35;;;;;;;20.20;13.48;;;11.40;94.80;;;;;;5070179;28;20388;-70
2021/08/25 04:44:01;;;;;;;18.52;13.13;;;11.40;94.80;;;;;;5068611;28;20028;-69
2021/08/25 04:46:27;;;;;;;19.77;13.13;;;11.40;94.80;;;;;;5069663;28;20047;-69
2021/08/25 04:48:52;;;;;;;17.95;13.32;;;11.40;94.80;;;;;;5069263;28;20060;-66
2021/08/25 04:51:18;;;;;;;16.88;12.95;;;11.50;94.80;;;;;;5070271;28;20056;-68
2021/08/25 04:53:43;;;;;;;19.35;13.82;;;11.50;94.80;;;;;;5069547;28;20089;-69
2021/08/25 04:56:09;;;;;;;16.92;12.32;;;11.50;94.80;;;;;;5069307;28;20052;-69
2021/08/25 04:58:35;;;;;;;18.42;13.43;;;11.50;94.80;;;;;;5069065;28;20021;-67
2021/08/25 05:01:01;;;;;;;18.08;12.40;;;11.50;94.80;;;;;;5069978;28;20052;-66
2021/08/25 05:03:27;;;;;;;19.83;13.25;;;11.50;94.80;;;;;;5066835;28;20020;-67
2021/08/25 05:05:52;;;;;;;16.30;12.52;;;11.50;94.80;;;;;;5068292;28;20116;-70
2021/08/25 05:08:18;;;;;;;18.75;12.68;;;11.50;94.80;;;;;;5069415;28;20491;-70
2021/08/25 05:10:47;;;;;;;16.38;12.40;;;11.50;94.80;;;;;;5070275;28;20029;-69
2021/08/25 05:13:13;;;;;;;15.50;12.27;;;11.50;94.80;;;;;;5065591;28;20066;-68
2021/08/25 05:15:45;;;;;;;16.83;12.57;;;11.50;94.80;;;;;;5069868;28;20024;-65
2021/08/25 05:18:11;;;;;;;19.25;12.75;;;11.50;94.80;;;;;;5068166;28;20032;-70
2021/08/25 05:20:37;;;;;;;18.65;12.75;;;11.50;94.80;;;;;;5069901;28;20039;-69
2021/08/25 05:23:03;;;;;;;15.77;12.48;;;11.50;94.80;;;;;;5063556;28;20043;-69
2021/08/25 05:25:28;;;;;;;17.58;12.10;;;11.50;94.80;;;;;;5066672;28;20021;-70
2021/08/25 05:27:54;;;;;;;18.42;12.65;;;11.50;94.80;;;;;;5069261;28;20035;-69
2021/08/25 05:30:19;;;;;;;17.65;13.10;;;11.50;94.80;;;;;;5068051;28;20088;-67
2021/08/25 05:32:51;;;;;;;16.38;12.27;;;11.50;94.80;;;;;;5069930;28;20025;-69
2021/08/25 05:35:17;;;;;;;20.25;13.25;;;11.60;94.80;;;;;;5066364;28;20028;-70
2021/08/25 05:37:42;;;;;;;17.85;13.55;;;11.60;94.90;;;;;;5069520;28;20055;-67
2021/08/25 05:40:08;;;;;;;17.77;13.25;;;11.60;94.90;;;;;;5070119;28;20118;-68
2021/08/25 05:42:34;;;;;;;16.42;12.48;;;11.60;94.90;;;;;;5069344;28;20033;-68
2021/08/25 05:44:59;;;;;;;16.50;12.40;;;11.70;95.00;;;;;;5064126;28;20113;-68
2021/08/25 05:47:25;;;;;;;16.10;12.30;;;11.70;94.90;;;;;;5070479;28;20024;-68
2021/08/25 05:49:50;;;;;;;21.15;13.40;;;11.70;94.90;;;;;;5068209;28;20104;-68
2021/08/25 05:52:16;;;;;;;20.20;13.77;;;11.80;95.00;;;;;;5070362;28;20457;-71
2021/08/25 05:54:41;;;;;;;19.20;12.48;;;11.80;94.90;;;;;;5068635;28;20033;-67
2021/08/25 05:57:07;;;;;;;17.95;13.48;;;11.80;94.90;;;;;;5070434;28;20115;-66
2021/08/25 05:59:32;;;;;;;17.17;12.20;;;11.90;95.00;;;;;;5070007;28;20029;-68
2021/08/25 06:01:58;;;;;;;21.85;13.82;;;11.90;95.00;;;;;;5070483;28;20029;-67
2021/08/25 06:04:24;;;;;;;18.05;13.23;;;11.90;95.00;;;;;;5069587;28;20028;-66
2021/08/25 06:06:49;;;;;;;19.70;13.52;;;12.00;95.00;;;;;;5063701;28;20180;-65
2021/08/25 06:09:15;;;;;;;18.80;13.57;;;12.00;95.00;;;;;;5049661;28;20028;-67
2021/08/25 06:11:41;;;;;;;20.33;14.45;;;12.00;95.00;;;;;;5069310;28;20025;-71
2021/08/25 06:14:07;;;;;;;19.13;13.48;;;12.10;95.00;;;;;;5088804;28;20024;-65
2021/08/25 06:16:33;;;;;;;19.27;13.65;;;12.10;95.00;;;;;;5077921;28;20086;-66
2021/08/25 06:18:59;;;;;;;18.98;13.55;;;12.20;95.10;;;;;;5079839;28;20451;-72
2021/08/25 06:21:24;;;;;;;19.13;13.00;;;12.20;95.10;;;;;;5073412;28;20025;-65
2021/08/25 06:23:50;;;;;;;18.05;13.05;;;12.20;95.10;;;;;;5072855;28;20562;-68
2021/08/25 06:26:15;;;;;;;19.08;12.55;;;12.30;95.10;;;;;;5072082;28;20035;-66
2021/08/25 06:28:41;;;;;;;23.45;13.35;;;12.40;95.10;;;;;;5073034;28;20082;-69
2021/08/25 06:31:07;;;;;;;18.63;12.20;;;12.40;95.10;;;;;;5073475;28;20078;-71
2021/08/25 06:33:34;;;;;;;16.67;12.63;;;12.40;95.10;;;;;;5073421;28;20046;-66
2021/08/25 06:35:59;;;;;;;18.50;12.82;;;12.50;95.10;;;;;;5072393;28;20100;-70
2021/08/25 06:38:25;;;;;;;18.25;12.32;;;12.50;95.00;;;;;;5068460;28;20044;-67
2021/08/25 06:40:51;;;;;;;18.33;12.55;;;12.50;95.00;;;;;;5066936;28;20089;-65
2021/08/25 06:43:16;;;;;;;16.23;11.70;;;12.60;95.00;;;;;;5072929;28;20020;-70
2021/08/25 06:45:42;;;;;;;16.45;11.82;;;12.60;95.00;;;;;;5069671;28;20166;-67
2021/08/25 06:48:07;;;;;;;17.05;12.38;;;12.60;95.00;;;;;;5070265;28;20044;-71
2021/08/25 06:50:33;;;;;;;20.40;11.57;;;12.70;95.00;;;;;;5072703;28;20040;-66
2021/08/25 06:52:58;;;;;;;17.45;11.77;;;12.70;95.00;;;;;;5072770;28;20050;-67
2021/08/25 06:55:24;;;;;;;13.60;10.77;;;12.80;95.00;;;;;;5071416;28;20024;-67
2021/08/25 06:57:50;;;;;;;14.75;11.15;;;12.80;95.00;;;;;;5072709;28;20024;-68
2021/08/25 07:00:18;;;;;;;17.40;10.95;;;12.90;95.10;;;;;;5072892;28;20033;-66
2021/08/25 07:02:43;;;;;;;13.90;10.57;;;13.00;95.10;;;;;;5073081;28;20032;-66
2021/08/25 07:05:09;;;;;;;14.05;10.45;;;13.10;95.00;;;;;;5069617;28;20097;-65
2021/08/25 07:07:35;;;;;;;14.32;10.85;;;13.10;95.00;;;;;;5072459;28;20105;-66
2021/08/25 07:10:01;;;;;;;14.75;9.90;;;13.20;95.00;;;;;;5072711;28;20024;-65
2021/08/25 07:12:29;;;;;;;14.20;9.88;;;13.20;94.90;;;;;;5072857;28;20033;-70
2021/08/25 07:14:55;;;;;;;14.40;9.93;;;13.30;94.90;;;;;;5071732;28;20642;-66
2021/08/25 07:17:21;;;;;;;15.00;9.77;;;13.40;94.90;;;;;;5072677;28;20107;-69
2021/08/25 07:19:46;;;;;;;12.25;9.23;;;13.50;94.80;;;;;;5072180;28;20021;-70
2021/08/25 07:22:12;;;;;;;11.68;8.90;;;13.70;94.80;;;;;;5071999;28;20032;-65
2021/08/25 07:24:38;;;;;;;12.60;8.88;;;13.80;94.70;;;;;;5056927;28;20025;-66
2021/08/25 07:27:04;;;;;;;12.13;8.57;;;14.10;94.60;;;;;;5034240;28;20035;-64
2021/08/25 07:29:30;;;;;;;12.13;8.00;;;14.30;94.40;;;;;;5052460;28;20104;-65
2021/08/25 07:31:55;;;;;;;11.27;8.43;;;14.70;94.10;;;;;;5052492;28;20124;-65
2021/08/25 07:34:21;;;;;;;12.18;7.63;;;15.10;93.80;;;;;;5052330;28;20036;-66
2021/08/25 07:36:47;;;;;;;9.20;7.03;;;15.50;93.40;;;;;;5051149;28;20049;-71
2021/08/25 07:39:12;;;;;;;9.70;7.25;;;15.90;93.10;;;;;;5052287;28;20354;-65
2021/08/25 07:41:38;;;;;;;9.45;6.65;;;16.30;92.70;;;;;;5052195;28;20374;-66
2021/08/25 07:44:05;;;;;;;9.35;7.00;;;16.70;92.40;;;;;;5052199;28;20156;-67
2021/08/25 07:46:32;;;;;;;9.30;6.22;;;17.10;92.00;;;;;;5068941;28;20028;-71
2021/08/25 07:49:08;;;;;;;9.00;5.65;;;17.60;91.40;;;;;;5071131;28;20024;-66
2021/08/25 07:51:34;;;;;;;7.90;6.00;;;18.00;90.80;;;;;;5071704;28;20024;-67
2021/08/25 07:54:01;;;;;;;7.53;5.32;;;18.40;90.40;;;;;;5071976;28;20124;-64
2021/08/25 07:56:27;;;;;;;7.65;5.10;;;18.90;89.90;;;;;;5071131;28;20476;-72
2021/08/25 07:58:53;;;;;;;8.88;5.30;;;19.30;88.70;;;;;;5071662;28;20029;-65
2021/08/25 08:01:18;;;;;;;6.35;5.03;;;19.80;87.70;;;;;;5072054;28;20433;-65
2021/08/25 08:03:44;;;;;;;6.13;4.78;;;20.20;86.50;;;;;;5053754;28;20524;-68
2021/08/25 08:06:09;;;;;;;5.43;4.38;;;20.70;85.30;;;;;;5052436;28;20396;-72
2021/08/25 08:08:35;;;;;;;5.90;4.97;;;21.10;83.50;;;;;;5071505;28;20358;-66
2021/08/25 08:11:01;;;;;;;7.80;4.55;;;21.40;82.10;;;;;;5071721;28;20099;-66
2021/08/25 08:13:26;;;;;;;6.72;4.13;;;21.70;80.70;;;;;;5070388;28;20033;-66
2021/08/25 08:15:52;;;;;;;6.82;4.22;;;22.10;80.20;;;;;;5070604;28;20528;-68
2021/08/25 08:18:27;;;;;;;6.38;4.53;;;22.40;79.00;;;;;;5071228;28;20025;-65
2021/08/25 08:20:53;;;;;;;5.82;4.63;;;22.80;78.40;;;;;;5071597;28;20381;-65
2021/08/25 08:23:19;;;;;;;6.60;4.07;;;23.20;76.80;;;;;;5071314;28;20021;-66
2021/08/25 08:25:45;;;;;;;5.32;4.25;;;23.50;75.90;;;;;;5070469;28;20100;-67
2021/08/25 08:28:11;;;;;;;6.65;3.88;;;23.90;74.80;;;;;;5071108;28;20172;-67
2021/08/25 08:30:37;;;;;;;8.68;4.35;;;24.20;74.30;;;;;;5071210;28;20033;-68
2021/08/25 08:33:02;;;;;;;5.70;3.95;;;24.50;72.80;;;;;;5071250;28;20016;-71
2021/08/25 08:35:28;;;;;;;5.15;3.60;;;24.80;71.70;;;;;;5069698;28;20025;-66
2021/08/25 08:37:59;;;;;;;5.88;3.95;;;24.90;70.80;;;;;;5071011;28;20052;-65
2021/08/25 08:40:25;;;;;;;5.07;3.90;;;25.10;69.90;;;;;;5071097;28;20498;-66
2021/08/25 08:42:52;;;;;;;4.53;3.70;;;25.10;69.60;;;;;;5064950;28;20037;-70
2021/08/25 08:45:20;;;;;;;4.18;3.58;;;25.10;69.00;;;;;;5068990;28;20368;-65
2021/08/25 08:47:46;;;;;;;6.43;3.88;;;25.10;69.30;;;;;;5077424;28;20029;-65
2021/08/25 08:50:12;;;;;;;7.68;3.60;;;25.10;69.50;;;;;;5070742;28;20037;-65
2021/08/25 08:52:38;;;;;;;4.35;3.17;;;25.00;69.30;;;;;;5069610;28;20021;-66
2021/08/25 08:55:05;;;;;;;3.97;3.28;;;25.00;69.50;;;;;;5070017;28;20021;-65
2021/08/25 08:57:31;;;;;;;5.15;3.00;;;24.70;69.60;;;;;;5059666;28;20415;-72
2021/08/25 09:00:00;;;;;;;6.18;3.83;;;24.60;70.20;;;;;;5070694;28;20021;-66
2021/08/25 09:02:46;;;;;;;5.28;3.70;;;24.70;70.50;;;;;;5070542;28;20509;-67
2021/08/25 09:05:24;;;;;;;4.20;3.20;;;24.20;71.00;;;;;;5069834;28;20024;-69
2021/08/25 09:07:56;;;;;;;3.80;3.13;;;24.20;70.30;;;;;;5070534;28;20021;-66
2021/08/25 09:10:26;;;;;;;3.40;3.10;;;24.20;70.90;;;;;;5070722;28;20024;-68
2021/08/25 09:12:58;;;;;;;4.50;3.05;;;24.20;70.70;;;;;;5070303;28;20332;-67
2021/08/25 09:15:26;;;;;;;4.65;3.30;;;24.20;70.50;;;;;;5068807;28;20025;-74
2021/08/25 09:18:20;;;;;;;4.68;3.53;;;24.40;70.80;;;;;;5069959;28;20124;-72
2021/08/25 09:20:48;;;;;;;5.63;3.50;;;24.10;70.50;;;;;;5053130;28;20028;-66
2021/08/25 09:23:23;;;;;;;4.32;2.97;;;23.90;70.30;;;;;;5070188;28;20024;-66
2021/08/25 09:25:51;;;;;;;8.57;4.10;;;24.00;69.80;;;;;;5069584;28;20496;-66
2021/08/25 09:28:24;;;;;;;4.68;3.22;;;24.00;70.40;;;;;;5069972;28;20047;-71
2021/08/25 09:30:57;;;;;;;6.10;3.55;;;24.20;70.10;;;;;;5068155;28;20021;-66
2021/08/25 09:33:26;;;;;;;8.05;3.78;;;24.00;69.20;;;;;;5071547;28;20062;-66
2021/08/25 09:35:55;;;;;;;5.05;3.45;;;23.90;69.50;;;;;;5068566;28;20021;-68
2021/08/25 09:38:23;;;;;;;6.75;3.65;;;23.80;69.60;;;;;;5069462;28;20024;-65
2021/08/25 09:40:52;;;;;;;4.53;3.30;;;23.80;69.60;;;;;;5069824;28;20099;-66
2021/08/25 09:43:35;;;;;;;7.65;3.40;;;23.80;69.40;;;;;;5069977;28;20032;-65
2021/08/25 09:46:04;;;;;;;4.88;3.65;;;23.70;68.20;;;;;;5063349;28;20025;-65
2021/08/25 09:48:37;;;;;;;5.22;3.47;;;23.60;68.40;;;;;;5071287;28;20017;-65
2021/08/25 09:51:04;;;;;;;5.35;3.17;;;23.50;68.40;;;;;;5074081;28;20100;-65
2021/08/25 09:53:29;;;;;;;4.32;3.20;;;23.50;68.60;;;;;;5073276;28;20046;-63
2021/08/25 09:55:55;;;;;;;5.40;3.80;;;23.30;68.10;;;;;;5072464;28;20501;-64
2021/08/25 09:58:24;;;;;;;7.75;3.92;;;23.20;67.50;;;;;;5073985;28;20028;-66
2021/08/25 10:00:52;;;;;;;6.80;4.07;;;23.10;67.60;;;;;;5073312;28;20029;-65
2021/08/25 10:03:17;;;;;;;5.20;3.60;;;23.00;67.20;;;;;;5074239;28;20024;-64
2021/08/25 10:05:45;;;;;;;7.57;4.18;;;23.00;67.60;;;;;;5072511;28;20033;-65
2021/08/25 10:08:12;;;;;;;8.25;4.30;;;23.00;67.10;;;;;;5071382;28;20372;-67
2021/08/25 10:10:38;;;;;;;6.00;3.63;;;23.00;67.80;;;;;;5065895;28;20036;-66
2021/08/25 10:13:04;;;;;;;7.15;3.60;;;23.10;67.70;;;;;;5073235;28;20169;-65
2021/08/25 10:15:33;;;;;;;8.35;4.15;;;23.20;67.70;;;;;;5072155;28;20039;-65
2021/08/25 10:17:59;;;;;;;7.53;4.20;;;23.30;66.60;;;;;;5072931;28;20654;-65
2021/08/25 10:20:25;;;;;;;6.78;4.32;;;23.40;66.50;;;;;;5073913;28;20032;-68
2021/08/25 10:22:52;;;;;;;6.20;3.95;;;23.60;66.90;;;;;;5073509;28;20101;-69
2021/08/25 10:25:19;;;;;;;5.28;3.97;;;23.70;65.70;;;;;;5072423;28;20433;-65
2021/08/25 10:28:00;;;;;;;8.15;4.38;;;23.80;65.00;;;;;;5070296;28;20456;-65
2021/08/25 10:30:25;;;;;;;7.40;4.18;;;23.90;63.30;;;;;;5055012;28;20423;-68
2021/08/25 10:32:51;;;;;;;7.38;4.57;;;24.00;63.70;;;;;;5073261;28;20085;-64
2021/08/25 10:35:46;;;;;;;7.53;5.15;;;23.90;63.00;;;;;;5072329;28;20025;-65
2021/08/25 10:38:15;;;;;;;6.78;5.00;;;23.60;61.80;;;;;;5063014;28;20036;-70
2021/08/25 10:40:41;;;;;;;7.93;4.47;;;23.40;61.60;;;;;;5073374;28;20020;-66
2021/08/25 10:43:06;;;;;;;4.95;3.65;;;23.30;61.80;;;;;;5070409;28;20380;-66
2021/08/25 10:45:44;;;;;;;7.10;4.40;;;23.20;62.20;;;;;;5071618;28;20040;-67
2021/08/25 10:48:10;;;;;;;8.20;4.15;;;23.30;61.60;;;;;;5070331;22;20049;-67
2021/08/25 10:50:54;;;;;;;6.60;4.53;;;23.30;61.90;;;;;;5052534;28;20024;-66
2021/08/25 10:53:29;;;;;;;6.53;4.75;;;23.30;61.90;;;;;;5053133;28;20036;-66
2021/08/25 10:56:18;;;;;;;8.32;4.35;;;23.40;61.90;;;;;;5050957;28;20024;-66
2021/08/25 10:58:51;;;;;;;8.40;4.25;;;23.50;61.40;;;;;;5051231;28;20028;-66
2021/08/25 11:01:36;;;;;;;8.57;4.50;;;23.50;61.50;;;;;;5052651;28;20036;-67
2021/08/25 11:04:14;;;;;;;7.22;4.70;;;23.50;60.40;;;;;;5051707;28;20039;-66
2021/08/25 11:06:41;;;;;;;7.05;4.35;;;23.40;60.10;;;;;;5049341;28;20068;-67
2021/08/25 11:09:15;;;;;;;6.80;4.40;;;23.50;61.10;;;;;;5048320;28;20028;-66
2021/08/25 11:11:45;;;;;;;7.75;4.97;;;23.50;60.80;;;;;;5037206;28;20540;-66
2021/08/25 11:14:26;;;;;;;7.47;4.80;;;23.50;61.00;;;;;;5052102;28;20017;-66
2021/08/25 11:16:53;;;;;;;7.63;4.68;;;23.60;60.20;;;;;;5050798;28;20068;-66
2021/08/25 11:19:47;;;;;;;8.48;4.50;;;23.50;60.70;;;;;;5052031;28;20060;-66
2021/08/25 11:22:36;;;;;;;7.70;4.65;;;23.40;60.60;;;;;;5030464;28;20124;-66
2021/08/25 11:25:09;;;;;;;6.88;4.57;;;23.40;60.60;;;;;;5028135;28;20120;-67
2021/08/25 11:27:40;;;;;;;7.93;5.00;;;23.40;60.30;;;;;;5051276;28;20021;-66
2021/08/25 11:30:06;;;;;;;7.85;4.32;;;23.50;60.70;;;;;;5046899;28;20481;-67
2021/08/25 11:32:33;;;;;;;7.60;4.90;;;23.50;60.70;;;;;;5033592;28;20025;-66
2021/08/25 11:34:59;;;;;;;8.25;4.40;;;23.50;60.30;;;;;;5055549;28;20529;-67
2021/08/25 11:37:25;;;;;;;7.47;4.55;;;23.40;61.00;;;;;;5054541;28;20024;-66
2021/08/25 11:40:03;;;;;;;9.25;4.85;;;23.40;60.60;;;;;;5042491;28;20036;-66
2021/08/25 11:42:34;;;;;;;7.10;4.45;;;23.30;60.00;;;;;;5051748;28;20032;-66
2021/08/25 11:45:01;;;;;;;9.68;4.78;;;23.20;60.30;;;;;;5050217;28;20072;-66
2021/08/25 11:47:27;;;;;;;8.55;4.78;;;23.10;60.30;;;;;;5051253;28;20033;-66
2021/08/25 11:49:55;;;;;;;10.15;4.82;;;23.10;60.30;;;;;;5052333;28;20465;-66
2021/08/25 11:52:32;;;;;;;8.32;5.10;;;23.20;59.80;;;;;;5052394;28;20049;-66
2021/08/25 11:55:00;;;;;;;8.23;4.45;;;23.30;59.90;;;;;;5050638;28;20033;-66
2021/08/25 11:57:40;;;;;;;7.80;4.57;;;23.40;59.60;;;;;;5051047;28;20485;-66
2021/08/25 12:00:06;;;;;;;6.35;4.22;;;23.40;59.60;;;;;;5044344;28;20612;-66
2021/08/25 12:02:49;;;;;;;7.55;4.65;;;23.50;60.00;;;;;;5051593;28;20032;-66
2021/08/25 12:05:25;;;;;;;8.70;4.70;;;23.50;58.90;;;;;;5051537;28;20366;-66
2021/08/25 12:08:14;;;;;;;8.68;5.07;;;23.50;58.50;;;;;;5044480;28;20523;-66
2021/08/25 12:10:44;;;;;;;8.80;4.57;;;23.60;59.20;;;;;;5050752;28;20037;-66
2021/08/25 12:13:12;;;;;;;7.07;4.53;;;23.60;59.20;;;;;;5050290;28;20021;-66
2021/08/25 12:15:44;;;;;;;7.90;4.60;;;23.60;58.90;;;;;;5049827;28;20021;-66
2021/08/25 12:18:09;;;;;;;7.93;4.45;;;23.60;58.20;;;;;;5051142;28;20060;-66
2021/08/25 12:20:41;;;;;;;28.60;6.20;;;23.60;58.50;;;;;;5051341;28;20110;-67
2021/08/25 12:23:09;;;;;;;11.13;4.60;;;23.60;59.10;;;;;;5045034;28;20039;-67
2021/08/25 12:25:55;;;;;;;9.50;4.47;;;23.70;59.30;;;;;;5056654;28;20393;-68
2021/08/25 12:28:53;;;;;;;8.00;4.53;;;23.70;58.10;;;;;;5050888;28;20025;-66
2021/08/25 12:31:18;;;;;;;8.07;4.90;;;23.70;58.30;;;;;;4996444;28;20037;-66
2021/08/25 12:34:03;;;;;;;8.02;4.65;;;23.80;59.10;;;;;;5051554;28;20023;-67
2021/08/25 12:36:37;;;;;;;9.20;4.07;;;23.90;58.50;;;;;;5050921;28;20036;-67
2021/08/25 12:39:05;;;;;;;6.70;4.40;;;24.10;58.40;;;;;;5053312;28;20133;-66
2021/08/25 12:41:32;;;;;;;6.95;4.00;;;24.20;58.00;;;;;;5052109;28;20064;-66